Time;durP1;ratioP1;P1;durP2;ratioP2;P2;SDS_P1;SDS_P2;PMS_P1;PMS_P2;Temp;Humidity;BMP_temperature;BMP_pressure;BME280_temperature;BME280_humidity;BME280_pressure;Samples;Min_cycle;Max_cycle;Signal;HPM_P1;HPM_P2
2022/03/19 00:02:19;;;;;;;5.43;3.10;;;;;;;8.88;41.27;102664.50;10353209;28;20088;-58
2022/03/19 00:07:20;;;;;;;5.55;3.38;;;;;;;8.85;41.51;102663.66;10351044;28;20132;-60
2022/03/19 00:12:22;;;;;;;5.25;2.92;;;;;;;8.80;41.51;102678.03;10352725;28;20141;-59
2022/03/19 00:17:23;;;;;;;3.92;2.40;;;;;;;8.64;41.70;102664.41;10353481;28;20159;-59
2022/03/19 00:22:25;;;;;;;3.97;2.50;;;;;;;8.73;41.91;102674.72;10351411;28;20510;-60
2022/03/19 00:27:26;;;;;;;4.70;2.30;;;;;;;8.71;42.03;102675.66;10351789;28;20184;-59
2022/03/19 00:32:28;;;;;;;4.90;2.38;;;;;;;8.68;42.04;102674.00;10351354;28;20124;-59
2022/03/19 00:37:31;;;;;;;4.82;2.42;;;;;;;8.66;42.30;102670.53;10349314;28;20563;-59
2022/03/19 00:42:32;;;;;;;5.28;2.50;;;;;;;8.58;42.71;102654.00;10358602;28;20490;-60
2022/03/19 00:47:34;;;;;;;5.07;3.22;;;;;;;8.55;43.06;102659.41;10359490;28;20049;-59
2022/03/19 00:52:36;;;;;;;6.05;2.47;;;;;;;8.50;43.02;102667.53;10351414;28;20415;-59
2022/03/19 00:57:41;;;;;;;5.00;2.80;;;;;;;8.44;43.43;102671.25;10353871;28;20204;-59
2022/03/19 01:02:43;;;;;;;;;;;;;;;8.27;44.38;102665.59;10355172;28;20049;-62
2022/03/19 01:07:47;;;;;;;5.22;2.70;;;;;;;8.16;44.56;102644.72;10349594;28;19925;-60
2022/03/19 01:12:50;;;;;;;7.55;4.00;;;;;;;8.15;44.42;102648.25;10354579;28;20074;-59
2022/03/19 01:17:52;;;;;;;5.40;2.55;;;;;;;8.09;45.00;102641.41;10350256;28;20554;-58
2022/03/19 01:22:53;;;;;;;6.70;2.88;;;;;;;8.12;45.32;102665.19;10351713;28;20614;-59
2022/03/19 01:27:55;;;;;;;5.20;2.80;;;;;;;8.09;44.96;102648.47;10350021;28;20902;-60
2022/03/19 01:32:56;;;;;;;6.15;2.70;;;;;;;8.09;45.35;102651.13;10356834;28;20431;-60
2022/03/19 01:37:58;;;;;;;5.43;2.92;;;;;;;8.03;45.24;102638.94;10360527;28;20287;-59
2022/03/19 01:43:00;;;;;;;10.05;3.20;;;;;;;8.06;45.20;102644.16;10357198;28;20095;-59
2022/03/19 01:48:02;;;;;;;4.85;3.03;;;;;;;7.86;45.88;102622.69;10360214;28;20054;-59
2022/03/19 01:53:03;;;;;;;5.55;2.55;;;;;;;7.87;45.71;102635.03;10361206;28;20046;-59
2022/03/19 01:58:05;;;;;;;4.63;2.78;;;;;;;7.70;46.71;102633.78;10360745;28;20049;-58
2022/03/19 02:03:07;;;;;;;6.47;3.05;;;;;;;7.67;46.94;102622.38;10361114;28;20171;-58
2022/03/19 02:08:08;;;;;;;5.72;2.92;;;;;;;7.64;47.16;102623.34;10361655;28;20065;-58
2022/03/19 02:13:10;;;;;;;3.40;2.67;;;;;;;7.60;46.67;102619.91;10357790;28;20564;-59
2022/03/19 02:18:11;;;;;;;5.22;2.88;;;;;;;7.40;47.30;102612.56;10365069;28;20050;-58
2022/03/19 02:28:42;;;;;;;6.70;3.13;;;;;;;7.54;47.53;102611.28;10356740;28;20055;-58
2022/03/19 02:33:44;;;;;;;5.65;2.75;;;;;;;7.40;47.58;102587.84;10356364;28;20491;-59
2022/03/19 02:38:48;;;;;;;5.80;3.15;;;;;;;7.61;47.61;102607.50;10360013;28;20050;-58
2022/03/19 02:43:50;;;;;;;10.13;2.88;;;;;;;7.57;47.58;102606.75;10352823;28;20060;-59
2022/03/19 02:48:52;;;;;;;8.20;3.33;;;;;;;7.61;47.37;102603.09;10356717;28;20053;-60
2022/03/19 02:53:54;;;;;;;6.75;3.30;;;;;;;7.60;47.33;102606.66;10346671;28;20061;-60
2022/03/19 02:58:55;;;;;;;4.22;3.03;;;;;;;7.43;48.13;102588.63;10352177;28;20142;-60
2022/03/19 03:03:56;;;;;;;5.20;3.40;;;;;;;7.37;48.18;102598.53;10348846;28;20128;-60
2022/03/19 03:08:58;;;;;;;6.45;3.30;;;;;;;7.47;48.24;102594.69;10350646;28;20307;-60
2022/03/19 03:13:59;;;;;;;6.45;3.80;;;;;;;7.51;48.13;102600.78;10348147;28;20391;-60
2022/03/19 03:19:04;;;;;;;7.82;3.33;;;;;;;7.42;48.59;102592.19;10354388;28;20052;-58
2022/03/19 03:24:06;;;;;;;;;;;;;;;7.42;48.67;102592.19;10364671;28;20143;-59
2022/03/19 03:29:08;;;;;;;5.07;3.08;;;;;;;7.39;48.96;102591.41;10350550;28;19972;-57
2022/03/19 03:34:10;;;;;;;6.13;3.17;;;;;;;7.23;49.05;102567.16;10348758;28;20356;-59
2022/03/19 03:39:11;;;;;;;5.80;3.10;;;;;;;7.11;49.21;102548.97;10350620;28;20050;-59
2022/03/19 03:44:12;;;;;;;4.10;3.17;;;;;;;7.28;49.27;102578.50;10352745;28;20142;-59
2022/03/19 03:49:14;;;;;;;7.00;3.35;;;;;;;7.22;49.22;102576.00;10353336;28;20049;-60
2022/03/19 03:54:15;;;;;;;5.50;2.83;;;;;;;7.18;49.85;102566.44;10356649;28;20148;-61
2022/03/19 03:59:17;;;;;;;8.23;3.20;;;;;;;7.17;49.58;102564.69;10352779;28;22422;-59
2022/03/19 04:04:18;;;;;;;7.28;3.22;;;;;;;7.05;50.07;102555.31;10352101;28;20200;-59
2022/03/19 04:09:21;;;;;;;6.18;3.13;;;;;;;7.01;50.63;102559.84;10349439;28;20057;-59
2022/03/19 04:14:22;;;;;;;7.35;2.85;;;;;;;6.99;50.59;102561.63;10350742;28;20365;-59
2022/03/19 04:19:24;;;;;;;8.73;3.38;;;;;;;6.92;50.68;102562.75;10350159;28;20162;-59
2022/03/19 04:24:25;;;;;;;5.22;2.80;;;;;;;6.88;50.95;102564.59;10353552;28;20522;-61
2022/03/19 04:29:27;;;;;;;5.22;2.45;;;;;;;6.90;51.17;102561.91;10351775;28;20448;-60
2022/03/19 04:34:28;;;;;;;5.18;2.63;;;;;;;6.91;51.05;102547.75;10344700;28;20054;-59
2022/03/19 04:39:30;;;;;;;5.00;2.45;;;;;;;6.92;51.14;102559.22;10359008;28;20715;-64
2022/03/19 04:44:31;;;;;;;6.00;3.20;;;;;;;6.75;51.76;102557.06;10351302;28;20306;-59
2022/03/19 04:49:33;;;;;;;4.97;2.80;;;;;;;6.73;52.06;102565.88;10350539;28;20097;-60
2022/03/19 04:54:34;;;;;;;5.55;3.47;;;;;;;6.76;52.01;102558.78;10354260;28;20049;-60
2022/03/19 04:59:36;;;;;;;7.18;2.97;;;;;;;6.79;52.29;102558.72;10349279;28;20136;-60
2022/03/19 05:04:37;;;;;;;5.90;2.55;;;;;;;6.80;52.50;102560.41;10350181;28;20148;-60
2022/03/19 05:14:59;;;;;;;3.53;2.38;;;;;;;6.73;53.23;102565.88;10346514;28;20047;-60
2022/03/19 05:20:01;;;;;;;6.05;3.00;;;;;;;6.70;53.47;102565.13;10348872;28;20129;-60
2022/03/19 05:25:04;;;;;;;4.15;3.10;;;;;;;6.73;53.26;102560.59;10348958;28;20627;-60
2022/03/19 05:30:08;;;;;;;6.50;3.20;;;;;;;6.71;53.47;102565.06;10347579;28;20058;-61
2022/03/19 05:35:10;;;;;;;5.18;2.70;;;;;;;6.66;53.89;102563.47;10344826;28;20115;-59
2022/03/19 05:40:12;;;;;;;5.85;2.95;;;;;;;6.61;54.36;102565.38;10345242;28;20435;-60
2022/03/19 05:45:15;;;;;;;5.78;3.38;;;;;;;6.62;54.32;102567.97;10348825;28;20212;-60
2022/03/19 05:50:17;;;;;;;7.63;3.25;;;;;;;6.65;54.46;102562.59;10351063;28;20473;-61
2022/03/19 05:55:19;;;;;;;6.38;3.33;;;;;;;6.69;54.27;102558.94;10347151;28;20056;-60
2022/03/19 06:00:20;;;;;;;4.65;3.22;;;;;;;6.69;54.26;102564.22;10345956;28;20061;-60
2022/03/19 06:05:22;;;;;;;5.82;2.83;;;;;;;6.66;54.58;102547.56;10350458;28;20566;-59
2022/03/19 06:10:23;;;;;;;5.85;3.70;;;;;;;6.58;54.79;102539.84;10354833;28;20055;-60
2022/03/19 06:15:25;;;;;;;6.10;2.47;;;;;;;6.83;54.29;102557.69;10345445;28;20164;-59
2022/03/19 06:20:26;;;;;;;5.03;2.88;;;;;;;6.67;54.30;102518.41;10331301;28;20150;-59
2022/03/19 06:25:28;;;;;;;7.22;3.80;;;;;;;6.94;54.09;102541.53;10340040;28;20504;-59
2022/03/19 06:30:31;;;;;;;6.63;3.50;;;;;;;7.12;54.09;102545.41;10339200;28;20076;-60
2022/03/19 06:40:55;;;;;;;5.93;4.28;;;;;;;7.63;52.19;102550.03;10340106;28;20137;-60
2022/03/19 06:45:59;;;;;;;4.38;3.25;;;;;;;7.78;52.18;102544.25;10339466;28;20050;-59
2022/03/19 06:51:01;;;;;;;5.13;3.85;;;;;;;8.01;51.61;102547.06;10338257;28;20520;-59
2022/03/19 06:56:03;;;;;;;6.30;3.30;;;;;;;8.25;50.89;102556.84;10339411;28;20278;-61
2022/03/19 07:01:04;;;;;;;7.68;4.10;;;;;;;8.29;51.31;102550.53;10338753;28;20091;-59
2022/03/19 07:06:06;;;;;;;6.32;3.83;;;;;;;8.51;50.79;102564.88;10337329;28;20571;-58
2022/03/19 07:11:27;;;;;;;4.57;3.30;;;;;;;8.69;50.48;102564.19;10338708;28;20056;-59
2022/03/19 07:16:29;;;;;;;7.00;3.72;;;;;;;8.83;49.99;102543.34;10341822;28;20061;-60
2022/03/19 07:21:32;;;;;;;6.32;4.03;;;;;;;9.13;49.64;102550.25;10340442;28;20751;-59
2022/03/19 07:26:34;;;;;;;6.13;3.40;;;;;;;9.35;49.38;102551.16;10350117;28;20164;-60
2022/03/19 07:31:35;;;;;;;10.15;5.00;;;;;;;9.55;49.08;102552.16;10344058;28;20063;-60
2022/03/19 07:36:38;;;;;;;4.70;3.30;;;;;;;9.74;48.15;102538.97;10347445;28;20053;-60
2022/03/19 07:41:45;;;;;;;5.20;3.72;;;;;;;9.96;47.92;102557.59;10345390;28;20191;-60
2022/03/19 07:46:47;;;;;;;7.85;4.32;;;;;;;10.23;47.51;102550.25;10338162;28;20145;-61
2022/03/19 07:51:55;;;;;;;7.60;3.60;;;;;;;10.38;46.57;102527.47;10338735;28;20054;-60
2022/03/19 07:56:56;;;;;;;5.53;4.05;;;;;;;10.52;46.31;102524.19;10334199;28;20510;-59
2022/03/19 08:01:57;;;;;;;6.95;3.75;;;;;;;10.79;45.57;102523.88;10331515;28;20049;-59
2022/03/19 08:06:59;;;;;;;8.80;4.38;;;;;;;10.96;45.49;102524.00;10337300;28;20053;-60
2022/03/19 08:12:02;;;;;;;7.70;4.65;;;;;;;11.16;45.40;102519.53;10338928;28;20143;-59
2022/03/19 08:17:04;;;;;;;5.57;3.90;;;;;;;11.52;44.31;102510.72;10342894;28;20041;-60
2022/03/19 08:22:06;;;;;;;5.82;4.03;;;;;;;11.77;43.73;102496.16;10336117;28;20132;-59
2022/03/19 08:27:09;;;;;;;7.70;4.88;;;;;;;11.83;43.68;102493.22;10339378;28;20057;-59
2022/03/19 08:32:11;;;;;;;9.48;4.70;;;;;;;12.09;43.05;102488.38;10343474;28;20050;-60
2022/03/19 08:37:12;;;;;;;6.50;4.82;;;;;;;12.35;42.71;102506.56;10339170;28;20057;-60
2022/03/19 08:42:14;;;;;;;7.50;4.80;;;;;;;12.63;42.31;102496.25;10338609;28;20455;-60
2022/03/19 08:47:15;;;;;;;6.45;4.57;;;;;;;12.66;42.32;102472.88;10338885;28;20060;-60
2022/03/19 08:52:17;;;;;;;7.50;5.35;;;;;;;13.04;41.53;102491.28;10333496;28;20038;-60
2022/03/19 08:57:19;;;;;;;7.47;5.18;;;;;;;13.17;41.53;102467.41;10334467;28;20064;-60
2022/03/19 09:02:21;;;;;;;6.78;4.53;;;;;;;13.82;40.19;102478.94;10330403;28;20053;-62
2022/03/19 09:07:23;;;;;;;4.90;4.40;;;;;;;13.83;39.15;102451.22;10329161;28;20698;-61
2022/03/19 09:12:26;;;;;;;7.97;5.07;;;;;;;14.42;37.99;102446.72;10330170;28;20200;-60
2022/03/19 09:17:28;;;;;;;7.03;4.05;;;;;;;14.55;37.50;102443.28;10335811;28;20124;-60
2022/03/19 09:22:30;;;;;;;6.20;3.83;;;;;;;14.83;36.44;102443.28;10332773;28;20991;-60
2022/03/19 09:27:32;;;;;;;6.93;4.50;;;;;;;15.03;36.28;102435.78;10335936;28;20061;-60
2022/03/19 09:32:35;;;;;;;7.63;4.78;;;;;;;15.56;36.67;102426.00;10330315;28;20061;-61
2022/03/19 09:37:36;;;;;;;5.53;4.25;;;;;;;15.75;35.08;102424.78;10338677;28;20053;-61
2022/03/19 09:42:47;;;;;;;4.93;2.95;;;;;;;16.12;32.99;102413.34;10338812;28;20054;-61
2022/03/19 09:47:50;;;;;;;7.15;3.63;;;;;;;16.39;32.24;102408.72;10335703;28;20061;-61
2022/03/19 09:52:53;;;;;;;5.73;2.77;;;;;;;16.55;30.94;102392.34;10337911;28;20053;-60
2022/03/19 09:58:01;;;;;;;5.55;3.40;;;;;;;16.85;30.82;102388.38;10338389;28;20046;-60
2022/03/19 10:03:08;;;;;;;8.85;4.88;;;;;;;17.46;30.23;102384.81;10344316;28;20050;-60
2022/03/19 10:13:30;;;;;;;4.75;3.20;;;;;;;19.19;27.84;102354.94;10339427;28;20052;-62
2022/03/19 10:18:32;;;;;;;6.22;4.05;;;;;;;22.37;23.29;102345.22;10372321;28;20132;-65
2022/03/19 10:23:36;;;;;;;5.50;3.72;;;;;;;25.59;19.70;102327.00;10368295;28;20592;-61
2022/03/19 10:28:37;;;;;;;6.07;2.83;;;;;;;26.61;17.08;102316.22;10348121;28;20081;-62
2022/03/19 10:33:38;;;;;;;5.03;3.45;;;;;;;25.57;18.55;102307.25;10346308;28;20184;-61
2022/03/19 10:38:42;;;;;;;5.45;3.22;;;;;;;23.40;19.34;102304.16;10345075;28;20614;-63
2022/03/19 10:43:47;;;;;;;5.47;3.60;;;;;;;23.00;20.47;102291.91;10347053;28;20526;-61
2022/03/19 10:48:52;;;;;;;6.53;4.22;;;;;;;24.92;18.75;102283.56;10344548;28;20131;-60
2022/03/19 10:53:56;;;;;;;3.92;3.25;;;;;;;29.86;15.19;102270.66;10342288;28;20080;-62
2022/03/19 10:58:57;;;;;;;5.25;3.33;;;;;;;31.35;13.44;102266.13;10343082;28;20468;-62
2022/03/19 11:04:01;;;;;;;4.90;3.03;;;;;;;32.90;12.21;102262.47;10341048;28;20061;-62
2022/03/19 11:09:06;;;;;;;2.75;2.10;;;;;;;34.43;10.40;102236.97;10344329;28;20054;-63
2022/03/19 11:14:19;;;;;;;2.88;1.85;;;;;;;35.23;9.53;102227.31;10345594;28;20057;-62
2022/03/19 11:19:20;;;;;;;4.10;1.83;;;;;;;35.70;9.00;102204.28;10342463;28;20187;-61
2022/03/19 11:24:26;;;;;;;4.30;1.60;;;;;;;36.01;8.25;102193.81;10339125;28;20067;-61
2022/03/19 11:29:28;;;;;;;2.55;0.90;;;;;;;36.39;7.99;102180.38;10344185;28;20848;-61
2022/03/19 11:34:44;;;;;;;2.33;0.93;;;;;;;35.60;7.12;102158.91;10342745;28;20050;-62
2022/03/19 11:40:18;;;;;;;1.75;1.15;;;;;;;36.79;6.64;102166.34;10341132;28;20083;-62
2022/03/19 11:45:51;;;;;;;2.08;1.13;;;;;;;36.24;6.65;102151.28;10340175;28;20060;-61
2022/03/19 11:50:53;;;;;;;0.93;0.63;;;;;;;37.18;6.17;102129.44;10332751;28;20037;-62
2022/03/19 11:56:03;;;;;;;1.85;1.00;;;;;;;37.98;6.02;102134.53;10344623;28;20530;-62
2022/03/19 12:01:04;;;;;;;2.55;0.77;;;;;;;38.43;5.95;102124.09;10342194;28;20635;-62
2022/03/19 12:06:30;;;;;;;1.20;0.77;;;;;;;38.29;5.69;102120.94;10345653;28;20072;-62
2022/03/19 12:11:33;;;;;;;3.13;1.10;;;;;;;38.68;5.64;102110.38;10345849;28;20381;-61
2022/03/19 12:16:45;;;;;;;3.67;0.90;;;;;;;39.71;4.95;102102.47;10341959;28;20137;-62
2022/03/19 12:21:47;;;;;;;1.80;0.88;;;;;;;38.80;5.59;102092.66;10336653;28;20770;-61
2022/03/19 12:26:49;;;;;;;2.72;1.05;;;;;;;38.82;5.25;102107.13;10339497;28;20188;-62
2022/03/19 12:31:52;;;;;;;1.60;1.05;;;;;;;38.43;5.22;102085.16;10339534;28;20053;-62
2022/03/19 12:37:00;;;;;;;5.88;2.28;;;;;;;39.58;4.84;102091.88;10336917;28;20059;-61
2022/03/19 12:42:01;;;;;;;3.60;1.17;;;;;;;38.20;5.67;102067.78;10333134;28;20041;-61
2022/03/19 12:47:08;;;;;;;2.28;1.05;;;;;;;38.77;5.33;102055.06;10332473;28;20068;-61
2022/03/19 12:52:11;;;;;;;2.95;1.00;;;;;;;39.18;4.93;102057.19;10332209;28;20510;-61
2022/03/19 12:57:17;;;;;;;3.85;0.82;;;;;;;40.05;5.19;102050.94;10328774;28;20534;-60
2022/03/19 13:02:23;;;;;;;2.10;1.40;;;;;;;39.44;4.77;102041.41;10325092;28;20065;-63
2022/03/19 13:07:24;;;;;;;1.50;0.98;;;;;;;39.33;4.70;102034.13;10333160;28;20057;-63
2022/03/19 13:12:26;;;;;;;2.78;0.70;;;;;;;39.21;5.16;102026.03;10330744;28;20551;-62
2022/03/19 13:17:29;;;;;;;1.30;0.70;;;;;;;40.53;4.63;102014.34;10329400;28;20141;-62
2022/03/19 13:22:31;;;;;;;1.73;0.73;;;;;;;40.52;4.68;101998.72;10330427;28;20468;-63
2022/03/19 13:27:35;;;;;;;3.05;0.82;;;;;;;40.35;4.43;102011.00;10335724;28;20053;-63
2022/03/19 13:32:36;;;;;;;2.88;0.98;;;;;;;39.20;4.78;101990.94;10346207;28;20045;-64
2022/03/19 13:37:39;;;;;;;1.80;0.95;;;;;;;37.02;5.65;102002.69;10344066;28;20491;-63
2022/03/19 13:42:42;;;;;;;4.22;0.90;;;;;;;35.45;6.40;101974.81;10341918;28;20170;-62
2022/03/19 13:47:46;;;;;;;2.50;0.98;;;;;;;35.47;6.62;101975.41;10340223;28;20045;-62
2022/03/19 13:52:58;;;;;;;4.00;0.82;;;;;;;32.15;8.03;101959.34;10341754;28;20463;-61
2022/03/19 13:58:06;;;;;;;3.63;0.98;;;;;;;28.48;9.53;101945.91;10345256;28;20038;-61
2022/03/19 14:03:09;;;;;;;3.05;1.02;;;;;;;26.22;11.16;101956.03;10347258;28;20095;-60
2022/03/19 14:08:19;;;;;;;2.17;0.90;;;;;;;23.78;12.31;101968.47;10346392;28;20128;-61
2022/03/19 14:13:32;;;;;;;2.43;0.80;;;;;;;22.45;14.08;101949.19;10344823;28;20132;-62
2022/03/19 14:18:34;;;;;;;2.70;0.80;;;;;;;21.97;14.88;101939.69;10343735;28;20053;-62
2022/03/19 14:23:41;;;;;;;4.63;1.42;;;;;;;20.80;15.68;101925.94;10343104;28;20058;-62
2022/03/19 14:28:43;;;;;;;3.95;0.90;;;;;;;19.43;16.38;101931.59;10339861;28;20646;-61
2022/03/19 14:33:44;;;;;;;2.70;0.85;;;;;;;18.06;18.13;101919.44;10339378;28;20050;-59
2022/03/19 14:38:48;;;;;;;2.47;1.23;;;;;;;18.78;18.02;101919.47;10337607;28;20049;-59
2022/03/19 14:43:50;;;;;;;;;;;;;;;18.14;19.29;101927.69;10335532;28;20140;-59
2022/03/19 14:48:52;;;;;;;4.25;1.20;;;;;;;16.83;20.97;101910.75;10325768;28;19925;-59
2022/03/19 14:53:54;;;;;;;3.60;0.95;;;;;;;16.63;21.70;101915.06;10338485;28;20206;-58
2022/03/19 14:58:56;;;;;;;5.28;1.55;;;;;;;17.03;21.55;101910.03;10341327;28;20045;-59
2022/03/19 15:03:58;;;;;;;2.97;0.93;;;;;;;16.39;21.98;101913.34;10339967;28;20607;-60
2022/03/19 15:08:59;;;;;;;4.07;1.00;;;;;;;15.72;22.74;101909.53;10322892;28;20164;-59
2022/03/19 15:14:01;;;;;;;4.20;2.00;;;;;;;15.02;23.46;101895.03;10327006;28;20145;-60
2022/03/19 15:19:02;;;;;;;3.20;0.88;;;;;;;15.04;23.65;101901.13;10330981;28;20065;-59
2022/03/19 15:24:04;;;;;;;2.08;1.35;;;;;;;15.23;23.32;101894.41;10333293;28;20049;-59
2022/03/19 15:29:06;;;;;;;3.20;0.85;;;;;;;15.42;23.43;101900.13;10336540;28;20494;-61
2022/03/19 15:34:07;;;;;;;3.70;1.70;;;;;;;14.44;24.11;101892.88;10338401;28;20058;-60
2022/03/19 15:39:11;;;;;;;4.30;1.38;;;;;;;13.79;24.81;101889.31;10348196;28;20051;-59
2022/03/19 15:44:13;;;;;;;3.65;1.48;;;;;;;13.51;25.24;101887.66;10347596;28;20054;-60
2022/03/19 15:49:14;;;;;;;3.97;1.85;;;;;;;13.43;25.76;101884.63;10338985;28;20064;-59
2022/03/19 15:54:15;;;;;;;4.57;1.23;;;;;;;13.50;26.02;101869.03;10331364;28;20053;-58
2022/03/19 15:59:17;;;;;;;2.08;1.40;;;;;;;13.59;26.54;101879.97;10338721;28;20136;-59
2022/03/19 16:04:18;;;;;;;3.20;0.98;;;;;;;13.50;29.37;101879.75;10334231;28;20060;-61
2022/03/19 16:09:20;;;;;;;3.40;1.73;;;;;;;13.33;31.32;101881.69;10335017;28;20053;-59
2022/03/19 16:14:21;;;;;;;5.75;1.65;;;;;;;13.22;31.92;101876.19;10334786;28;20097;-61
2022/03/19 16:19:23;;;;;;;2.40;1.10;;;;;;;12.58;33.12;101891.88;10336103;28;20530;-61
2022/03/19 16:24:24;;;;;;;3.15;1.27;;;;;;;12.26;34.75;101898.25;10335160;28;20049;-61
2022/03/19 16:29:26;;;;;;;3.75;1.70;;;;;;;12.02;35.46;101900.63;10333613;28;20216;-59
2022/03/19 16:34:27;;;;;;;1.88;1.00;;;;;;;12.07;36.02;101909.22;10336215;28;20061;-59
2022/03/19 16:39:28;;;;;;;3.20;2.08;;;;;;;11.83;35.27;101882.16;10337954;28;20054;-61
2022/03/19 16:44:30;;;;;;;4.22;2.00;;;;;;;12.00;34.92;101907.88;10337987;28;20050;-62
2022/03/19 16:49:32;;;;;;;3.15;1.30;;;;;;;11.97;34.77;101892.88;10333540;28;20062;-62
2022/03/19 16:54:33;;;;;;;7.63;4.70;;;;;;;12.01;35.23;101889.09;10336048;28;20266;-60
2022/03/19 16:59:34;;;;;;;5.15;2.92;;;;;;;12.03;35.14;101892.50;10333550;28;20053;-61
2022/03/19 17:04:36;;;;;;;6.03;2.08;;;;;;;11.74;35.76;101891.56;10336940;28;20068;-60
2022/03/19 17:09:38;;;;;;;5.45;1.65;;;;;;;11.64;36.20;101893.06;10337640;28;20472;-60
2022/03/19 17:14:39;;;;;;;5.25;2.65;;;;;;;11.46;36.88;101890.53;10337322;28;20096;-60
2022/03/19 17:19:41;;;;;;;4.70;2.40;;;;;;;11.35;37.29;101892.09;10331218;28;20612;-60
2022/03/19 17:24:42;;;;;;;4.25;2.63;;;;;;;11.24;37.02;101882.91;10334241;28;20055;-60
2022/03/19 17:29:44;;;;;;;4.03;2.63;;;;;;;11.41;37.09;101899.72;10333752;28;20045;-59
2022/03/19 17:34:45;;;;;;;4.00;3.05;;;;;;;11.24;37.10;101888.22;10334890;28;20050;-61
2022/03/19 17:39:46;;;;;;;7.13;3.15;;;;;;;10.73;37.91;101877.78;10336021;28;20053;-60
2022/03/19 17:44:48;;;;;;;6.15;4.03;;;;;;;10.47;38.78;101896.97;10329349;28;20140;-61
2022/03/19 17:49:52;;;;;;;7.18;4.43;;;;;;;10.19;38.71;101883.31;10332324;28;20263;-63
2022/03/19 17:54:54;;;;;;;6.10;5.13;;;;;;;10.15;39.72;101911.03;10336677;28;20064;-61
2022/03/19 17:59:55;;;;;;;7.47;6.15;;;;;;;10.03;40.57;101906.34;10339542;28;20629;-61
2022/03/19 18:04:56;;;;;;;7.32;6.28;;;;;;;10.00;41.65;101911.81;10335879;28;20397;-61
2022/03/19 18:09:58;;;;;;;6.97;5.65;;;;;;;10.03;41.42;101924.97;10336720;28;21140;-61
2022/03/19 18:15:00;;;;;;;6.88;6.03;;;;;;;9.90;42.17;101922.91;10338168;28;20121;-63
2022/03/19 18:20:06;;;;;;;9.00;7.15;;;;;;;9.62;43.80;101930.56;10341631;28;20063;-61
2022/03/19 18:25:08;;;;;;;8.52;7.55;;;;;;;9.44;44.68;101922.56;10344306;28;20461;-61
2022/03/19 18:30:11;;;;;;;8.77;7.65;;;;;;;9.43;44.99;101930.59;10340245;28;20064;-60
2022/03/19 18:35:13;;;;;;;7.72;6.93;;;;;;;9.53;45.09;101922.13;10344805;28;20531;-61
2022/03/19 18:40:14;;;;;;;8.45;7.10;;;;;;;9.78;43.96;101920.88;10348349;28;20057;-59
2022/03/19 18:45:19;;;;;;;13.98;9.70;;;;;;;9.70;44.55;101902.66;10347326;28;20079;-60
2022/03/19 18:50:21;;;;;;;;;;;;;;;9.97;44.78;101923.47;10346988;28;20371;-61
2022/03/19 18:55:22;;;;;;;9.55;8.55;;;;;;;10.00;44.60;101898.53;10342745;28;19929;-61
2022/03/19 19:00:26;;;;;;;8.57;7.72;;;;;;;9.94;44.99;101898.81;10342725;28;20049;-60
2022/03/19 19:05:27;;;;;;;12.10;9.25;;;;;;;9.93;45.83;101900.63;10344584;28;20300;-60
2022/03/19 19:10:28;;;;;;;11.20;9.35;;;;;;;9.84;45.44;101893.13;10339569;28;20056;-61
2022/03/19 19:15:31;;;;;;;11.45;10.35;;;;;;;9.62;45.33;101872.06;10341927;28;20068;-62
2022/03/19 19:20:32;;;;;;;15.90;10.90;;;;;;;9.55;44.85;101872.38;10342148;28;20677;-61
2022/03/19 19:25:34;;;;;;;13.95;12.55;;;;;;;9.59;44.46;101882.88;10342896;28;20491;-62
2022/03/19 19:30:35;;;;;;;15.00;13.35;;;;;;;9.32;45.04;101875.31;10345017;28;20060;-60
2022/03/19 19:35:37;;;;;;;13.15;11.75;;;;;;;9.39;44.82;101876.75;10345571;28;20053;-60
2022/03/19 19:40:41;;;;;;;14.43;12.93;;;;;;;9.10;44.61;101817.09;10347347;28;20049;-61
2022/03/19 19:45:43;;;;;;;15.35;13.80;;;;;;;9.29;44.65;101854.22;10344061;28;20359;-60
2022/03/19 19:50:45;;;;;;;15.52;13.90;;;;;;;9.40;44.11;101859.88;10344976;28;20569;-61
2022/03/19 19:55:46;;;;;;;15.25;13.65;;;;;;;9.32;44.33;101844.31;10344535;28;20064;-61
2022/03/19 20:00:51;;;;;;;30.02;23.08;;;;;;;9.15;43.98;101845.13;10342063;28;20458;-60
2022/03/19 20:05:55;;;;;;;17.95;15.25;;;;;;;9.02;43.87;101817.44;10345517;28;20049;-63
2022/03/19 20:10:57;;;;;;;17.77;15.98;;;;;;;9.19;43.42;101833.41;10341779;28;20053;-60
2022/03/19 20:15:58;;;;;;;17.27;15.32;;;;;;;9.17;43.75;101824.69;10342997;28;20595;-60
2022/03/19 20:21:01;;;;;;;17.77;15.93;;;;;;;9.08;43.34;101800.34;10341740;28;20059;-61
2022/03/19 20:26:02;;;;;;;19.50;16.85;;;;;;;9.18;43.13;101809.59;10341695;28;20049;-61
2022/03/19 20:31:04;;;;;;;19.35;17.42;;;;;;;9.06;43.11;101805.75;10337708;28;20054;-60
2022/03/19 20:36:07;;;;;;;18.15;16.27;;;;;;;8.96;43.68;101804.47;10340599;28;20666;-63
2022/03/19 20:41:08;;;;;;;19.60;17.52;;;;;;;8.89;42.94;101797.72;10344762;28;20064;-62
2022/03/19 20:46:09;;;;;;;19.35;17.52;;;;;;;8.71;43.86;101796.81;10342384;28;20061;-61
2022/03/19 20:51:12;;;;;;;19.75;17.70;;;;;;;8.69;43.54;101774.81;10337754;28;20123;-61
2022/03/19 20:56:13;;;;;;;19.10;16.45;;;;;;;8.72;43.69;101775.53;10338991;28;20507;-60
2022/03/19 21:01:15;;;;;;;18.83;16.98;;;;;;;8.74;43.40;101762.19;10341941;28;20046;-61
2022/03/19 21:06:18;;;;;;;18.15;16.35;;;;;;;8.62;43.53;101763.63;10330901;28;20192;-62
2022/03/19 21:16:39;;;;;;;18.35;16.38;;;;;;;8.47;43.21;101752.81;10336018;28;20058;-61
2022/03/19 21:21:42;;;;;;;20.58;17.15;;;;;;;8.39;43.47;101747.00;10355480;28;20239;-62
2022/03/19 21:26:45;;;;;;;19.85;17.88;;;;;;;8.26;43.76;101733.44;10352332;28;20053;-63
2022/03/19 21:31:47;;;;;;;22.20;17.90;;;;;;;8.39;43.39;101714.28;10351324;28;20050;-62
2022/03/19 21:36:49;;;;;;;20.88;18.83;;;;;;;8.32;43.34;101717.22;10351769;28;20499;-62
2022/03/19 21:41:50;;;;;;;20.25;18.15;;;;;;;8.19;43.23;101697.50;10357073;28;20099;-61
2022/03/19 21:46:53;;;;;;;19.33;17.33;;;;;;;8.20;43.43;101703.69;10349359;28;20045;-61
2022/03/19 21:51:54;;;;;;;19.33;17.52;;;;;;;8.13;42.99;101685.41;10358894;28;20054;-60
2022/03/19 21:56:55;;;;;;;19.80;17.77;;;;;;;8.15;43.12;101690.63;10358130;28;20049;-61
2022/03/19 22:01:59;;;;;;;19.15;17.33;;;;;;;8.16;43.04;101691.50;10359478;28;20049;-61
2022/03/19 22:07:00;;;;;;;20.75;18.25;;;;;;;8.09;43.41;101675.88;10359106;28;20042;-61
2022/03/19 22:12:02;;;;;;;19.70;17.63;;;;;;;8.05;43.51;101681.41;10360617;28;20076;-61
2022/03/19 22:17:04;;;;;;;20.25;18.30;;;;;;;7.89;43.84;101683.91;10358480;28;20283;-61
2022/03/19 22:22:06;;;;;;;20.40;18.30;;;;;;;7.91;43.68;101671.44;10367191;28;20050;-61
2022/03/19 22:27:07;;;;;;;18.92;17.25;;;;;;;7.67;43.78;101647.81;10357137;28;20053;-61
2022/03/19 22:32:09;;;;;;;20.83;18.88;;;;;;;7.63;43.68;101656.81;10361867;28;20047;-62
2022/03/19 22:37:10;;;;;;;20.35;18.25;;;;;;;7.46;43.96;101624.91;10356585;28;20045;-60
2022/03/19 22:42:11;;;;;;;19.70;17.63;;;;;;;7.28;44.53;101630.13;10354424;28;20041;-60
2022/03/19 22:47:13;;;;;;;21.83;19.55;;;;;;;7.46;43.68;101633.75;10357773;28;20053;-62
2022/03/19 22:52:15;;;;;;;20.83;18.75;;;;;;;7.38;43.64;101631.41;10358667;28;20049;-61
2022/03/19 22:57:16;;;;;;;19.35;17.55;;;;;;;7.46;43.01;101614.31;10356927;28;20053;-61
2022/03/19 23:02:18;;;;;;;18.83;16.85;;;;;;;7.46;42.38;101611.66;10355149;28;20076;-62
2022/03/19 23:07:20;;;;;;;19.15;17.27;;;;;;;7.39;42.02;101604.00;10354981;28;20065;-60
2022/03/19 23:12:22;;;;;;;20.35;17.98;;;;;;;7.54;41.84;101601.59;10356429;28;20049;-60
2022/03/19 23:17:24;;;;;;;19.27;17.50;;;;;;;7.48;41.88;101593.94;10353180;28;20054;-64
2022/03/19 23:22:25;;;;;;;22.40;19.13;;;;;;;7.30;42.17;101575.28;10357940;28;20108;-62
2022/03/19 23:27:27;;;;;;;19.42;17.42;;;;;;;7.32;41.76;101581.38;10353176;28;20054;-61
2022/03/19 23:32:28;;;;;;;19.63;17.48;;;;;;;7.30;42.10;101591.19;10357891;28;20054;-61
2022/03/19 23:37:29;;;;;;;19.75;17.58;;;;;;;7.22;41.19;101561.53;10401212;28;20050;-61
2022/03/19 23:42:31;;;;;;;19.23;17.13;;;;;;;7.32;41.21;101573.41;10362815;28;20140;-65